Time;durP1;ratioP1;P1;durP2;ratioP2;P2;SDS_P1;SDS_P2;PMS_P1;PMS_P2;Temp;Humidity;BMP_temperature;BMP_pressure;BME280_temperature;BME280_humidity;BME280_pressure;Samples;Min_cycle;Max_cycle;Signal;HPM_P1;HPM_P2
2023/06/30 00:00:32;;;;;;;0.10;0.10;;;;;;;;;;4901044;28;21033;-94
2023/06/30 00:03:22;;;;;;;0.10;0.10;;;;;;;;;;4965478;28;20501;-94
2023/06/30 00:06:02;;;;;;;0.10;0.10;;;;;;;;;;4961662;28;20504;-93
2023/06/30 00:11:33;;;;;;;0.10;0.10;;;;;;;;;;5737191;22;20054;-76
2023/06/30 00:14:00;;;;;;;0.30;0.30;;;;;;;;;;5023284;28;20058;-77
2023/06/30 00:16:26;;;;;;;0.10;0.10;;;;;;;;;;5037352;28;20438;-76
2023/06/30 00:18:55;;;;;;;0.10;0.10;;;;;;;;;;5025277;28;20082;-76
2023/06/30 00:21:22;;;;;;;0.10;0.10;;;;;;;;;;5027544;28;20140;-76
2023/06/30 00:23:48;;;;;;;0.10;0.10;;;;;;;;;;5023909;28;20775;-76
2023/06/30 00:26:15;;;;;;;0.10;0.10;;;;;;;;;;5020135;28;20056;-76
2023/06/30 00:31:31;;;;;;;0.10;0.10;;;;;;;;;;5525367;23;20057;-77
2023/06/30 00:33:58;;;;;;;0.10;0.10;;;;;;;;;;5025657;28;20054;-78
2023/06/30 00:36:24;;;;;;;1.95;0.45;;;;;;;;;;5034357;28;20936;-77
2023/06/30 00:38:51;;;;;;;0.20;0.20;;;;;;;;;;5019761;28;20961;-77
2023/06/30 00:41:18;;;;;;;0.10;0.10;;;;;;;;;;5014913;28;20092;-77
2023/06/30 00:43:44;;;;;;;0.10;0.10;;;;;;;;;;5026802;28;20727;-76
2023/06/30 00:46:13;;;;;;;0.10;0.10;;;;;;;;;;5031930;28;20050;-77
2023/06/30 00:48:39;;;;;;;0.38;0.38;;;;;;;;;;5025824;28;20049;-77
2023/06/30 00:51:06;;;;;;;0.20;0.20;;;;;;;;;;5025811;28;20081;-77
2023/06/30 00:53:32;;;;;;;0.10;0.10;;;;;;;;;;5027813;28;20050;-76
2023/06/30 00:55:59;;;;;;;0.10;0.10;;;;;;;;;;5028145;28;20061;-77
2023/06/30 00:58:25;;;;;;;0.10;0.10;;;;;;;;;;5019230;28;20069;-76
2023/06/30 01:00:55;;;;;;;0.20;0.20;;;;;;;;;;5024549;28;20065;-76
2023/06/30 01:03:38;;;;;;;0.10;0.10;;;;;;;;;;5024912;28;20050;-76
2023/06/30 01:06:17;;;;;;;0.10;0.10;;;;;;;;;;5026008;28;20157;-76
2023/06/30 01:08:52;;;;;;;0.15;0.15;;;;;;;;;;5027683;28;20057;-76
2023/06/30 01:11:19;;;;;;;0.10;0.10;;;;;;;;;;5025445;28;20108;-77
2023/06/30 01:13:46;;;;;;;1.38;0.52;;;;;;;;;;5026918;28;20621;-76
2023/06/30 01:16:14;;;;;;;0.10;0.10;;;;;;;;;;5024358;28;20062;-77
2023/06/30 01:18:43;;;;;;;0.10;0.10;;;;;;;;;;5025902;28;20053;-77
2023/06/30 01:21:13;;;;;;;0.10;0.10;;;;;;;;;;5024469;28;20050;-78
2023/06/30 01:23:47;;;;;;;0.10;0.10;;;;;;;;;;5043347;28;20112;-78
2023/06/30 01:26:14;;;;;;;0.10;0.10;;;;;;;;;;5026221;28;20066;-78
2023/06/30 01:28:41;;;;;;;0.10;0.10;;;;;;;;;;5025467;28;20906;-77
2023/06/30 01:33:43;;;;;;;0.10;0.10;;;;;;;;;;5080244;23;20881;-76
2023/06/30 01:39:12;;;;;;;0.10;0.10;;;;;;;;;;5408413;23;20058;-93
2023/06/30 01:42:17;;;;;;;;;;;;;;;;;;;;;
2023/06/30 01:48:42;;;;;;;0.10;0.10;;;;;;;;;;4967428;28;20058;-93
2023/06/30 01:54:44;;;;;;;0.10;0.10;;;;;;;;;;4928387;28;20062;-93
2023/06/30 02:01:21;;;;;;;0.10;0.10;;;;;;;;;;4939060;28;20066;-93
2023/06/30 02:04:08;;;;;;;;;;;;;;;;;;;;;
2023/06/30 02:06:59;;;;;;;0.20;0.20;;;;;;;;;;4968346;28;20502;-93
2023/06/30 02:12:53;;;;;;;0.10;0.10;;;;;;;;;;4916639;28;20641;-93
2023/06/30 02:15:45;;;;;;;0.10;0.10;;;;;;;;;;4976765;28;20587;-93
2023/06/30 02:23:35;;;;;;;0.10;0.10;;;;;;;;;;5010892;28;20046;-75
2023/06/30 02:26:01;;;;;;;0.10;0.10;;;;;;;;;;5007966;28;20469;-75
2023/06/30 02:28:28;;;;;;;0.10;0.10;;;;;;;;;;5015489;28;20165;-75
2023/06/30 02:33:29;;;;;;;0.10;0.10;;;;;;;;;;5432275;22;20731;-76
2023/06/30 02:35:56;;;;;;;0.10;0.10;;;;;;;;;;5006404;28;21105;-78
2023/06/30 02:38:22;;;;;;;0.10;0.10;;;;;;;;;;5011256;28;20058;-78
2023/06/30 02:40:49;;;;;;;0.10;0.10;;;;;;;;;;5001040;28;20061;-77
2023/06/30 02:43:15;;;;;;;0.10;0.10;;;;;;;;;;5006884;28;20054;-76
2023/06/30 02:45:42;;;;;;;0.10;0.10;;;;;;;;;;5004501;28;20128;-76
2023/06/30 02:48:09;;;;;;;0.10;0.10;;;;;;;;;;5000243;28;20168;-77
2023/06/30 02:50:35;;;;;;;0.10;0.10;;;;;;;;;;5006051;28;20054;-78
2023/06/30 02:53:02;;;;;;;0.10;0.10;;;;;;;;;;5008957;28;20135;-77
2023/06/30 02:55:29;;;;;;;0.20;0.20;;;;;;;;;;4991535;28;20065;-77
2023/06/30 02:57:56;;;;;;;0.10;0.10;;;;;;;;;;5006270;28;20961;-78
2023/06/30 03:00:23;;;;;;;0.10;0.10;;;;;;;;;;4993602;28;20814;-78
2023/06/30 03:02:49;;;;;;;0.10;0.10;;;;;;;;;;5005063;28;20068;-77
2023/06/30 03:05:16;;;;;;;0.10;0.10;;;;;;;;;;5008808;28;20058;-78
2023/06/30 03:07:42;;;;;;;0.20;0.20;;;;;;;;;;5005146;28;20058;-77
2023/06/30 03:10:09;;;;;;;0.10;0.10;;;;;;;;;;4990051;28;20061;-77
2023/06/30 03:12:35;;;;;;;0.40;0.40;;;;;;;;;;5008309;28;20065;-78
2023/06/30 03:15:02;;;;;;;0.10;0.10;;;;;;;;;;5007543;28;20059;-78
2023/06/30 03:17:28;;;;;;;0.10;0.10;;;;;;;;;;5005795;28;20112;-78
2023/06/30 03:19:55;;;;;;;0.20;0.20;;;;;;;;;;4996827;28;20725;-76
2023/06/30 03:22:22;;;;;;;0.10;0.10;;;;;;;;;;4995323;28;20046;-77
2023/06/30 03:24:48;;;;;;;0.10;0.10;;;;;;;;;;5006925;28;20062;-77
2023/06/30 03:27:15;;;;;;;0.10;0.10;;;;;;;;;;5005589;28;20035;-76
2023/06/30 03:29:41;;;;;;;0.10;0.10;;;;;;;;;;5004569;28;20070;-77
2023/06/30 03:32:08;;;;;;;0.10;0.10;;;;;;;;;;5007663;28;20066;-77
2023/06/30 03:34:34;;;;;;;0.10;0.10;;;;;;;;;;5023945;28;20136;-77
2023/06/30 03:37:01;;;;;;;0.10;0.10;;;;;;;;;;5025129;28;20065;-77
2023/06/30 03:39:27;;;;;;;0.10;0.10;;;;;;;;;;5022288;28;20062;-77
2023/06/30 03:41:54;;;;;;;0.10;0.10;;;;;;;;;;5029746;28;20050;-78
2023/06/30 03:44:20;;;;;;;0.10;0.10;;;;;;;;;;5028919;28;20746;-77
2023/06/30 03:46:46;;;;;;;0.10;0.10;;;;;;;;;;5030591;28;20157;-76
2023/06/30 03:49:13;;;;;;;0.93;0.70;;;;;;;;;;5023932;28;20078;-78
2023/06/30 03:51:41;;;;;;;0.10;0.10;;;;;;;;;;5028888;28;20104;-78
2023/06/30 03:54:08;;;;;;;0.10;0.10;;;;;;;;;;5013459;28;20105;-78
2023/06/30 03:56:35;;;;;;;0.10;0.10;;;;;;;;;;5022143;28;20060;-76
2023/06/30 03:59:01;;;;;;;0.10;0.10;;;;;;;;;;5017632;28;20058;-77
2023/06/30 04:01:28;;;;;;;0.10;0.10;;;;;;;;;;5023184;28;20046;-78
2023/06/30 04:03:54;;;;;;;0.10;0.10;;;;;;;;;;5008843;28;20050;-78
2023/06/30 04:06:21;;;;;;;0.10;0.10;;;;;;;;;;5027670;28;20469;-77
2023/06/30 04:08:48;;;;;;;0.10;0.10;;;;;;;;;;5020609;28;20085;-76
2023/06/30 04:11:14;;;;;;;0.10;0.10;;;;;;;;;;5020377;28;20054;-77
2023/06/30 04:13:40;;;;;;;0.10;0.10;;;;;;;;;;5028076;28;20076;-78
2023/06/30 04:16:07;;;;;;;0.10;0.10;;;;;;;;;;5027799;28;20058;-78
2023/06/30 04:18:34;;;;;;;0.10;0.10;;;;;;;;;;5024680;28;20089;-78
2023/06/30 04:21:00;;;;;;;0.10;0.10;;;;;;;;;;5029016;28;20049;-76
2023/06/30 04:23:27;;;;;;;0.10;0.10;;;;;;;;;;5026477;28;20049;-77
2023/06/30 04:25:53;;;;;;;0.10;0.10;;;;;;;;;;5027106;28;20585;-77
2023/06/30 04:28:20;;;;;;;0.10;0.10;;;;;;;;;;5019543;28;20145;-77
2023/06/30 04:30:47;;;;;;;0.10;0.10;;;;;;;;;;5029564;28;20082;-78
2023/06/30 04:33:13;;;;;;;0.10;0.10;;;;;;;;;;5026933;28;20109;-78
2023/06/30 04:35:43;;;;;;;0.10;0.10;;;;;;;;;;5027241;28;20137;-78
2023/06/30 04:38:10;;;;;;;0.10;0.10;;;;;;;;;;5022404;28;20057;-78
2023/06/30 04:40:37;;;;;;;0.10;0.10;;;;;;;;;;5274158;23;20022;-77
2023/06/30 04:43:11;;;;;;;0.17;0.17;;;;;;;;;;5036895;28;20055;-77
2023/06/30 04:45:40;;;;;;;0.10;0.10;;;;;;;;;;5039369;28;20140;-77
2023/06/30 04:48:07;;;;;;;0.10;0.10;;;;;;;;;;5023268;28;20429;-77
2023/06/30 04:50:35;;;;;;;0.10;0.10;;;;;;;;;;5019257;28;20065;-77
2023/06/30 04:53:01;;;;;;;0.30;0.30;;;;;;;;;;5020103;28;20062;-78
2023/06/30 04:55:27;;;;;;;0.10;0.10;;;;;;;;;;5023875;28;20416;-78
2023/06/30 04:57:55;;;;;;;0.10;0.10;;;;;;;;;;5021828;28;20061;-78
2023/06/30 05:00:26;;;;;;;0.10;0.10;;;;;;;;;;5019521;28;20057;-78
2023/06/30 05:02:52;;;;;;;0.10;0.10;;;;;;;;;;5022962;28;20119;-78
2023/06/30 05:05:19;;;;;;;0.10;0.10;;;;;;;;;;5019269;28;20057;-77
2023/06/30 05:07:46;;;;;;;0.10;0.10;;;;;;;;;;5013284;28;20061;-78
2023/06/30 05:10:15;;;;;;;0.10;0.10;;;;;;;;;;5017114;28;20065;-77
2023/06/30 05:12:42;;;;;;;0.00;0.00;;;;;;;;;;5020659;28;20057;-78
2023/06/30 05:15:08;;;;;;;0.10;0.10;;;;;;;;;;5012145;28;20049;-77
2023/06/30 05:17:35;;;;;;;0.10;0.10;;;;;;;;;;5015685;28;20068;-77
2023/06/30 05:20:05;;;;;;;0.10;0.10;;;;;;;;;;5024256;28;20062;-77
2023/06/30 05:22:31;;;;;;;0.10;0.10;;;;;;;;;;5020885;28;20064;-77
2023/06/30 05:24:58;;;;;;;0.10;0.10;;;;;;;;;;5024150;28;20060;-77
2023/06/30 05:27:24;;;;;;;0.10;0.10;;;;;;;;;;5019383;28;20061;-77
2023/06/30 05:29:51;;;;;;;0.10;0.10;;;;;;;;;;5024142;28;20058;-77
2023/06/30 05:32:17;;;;;;;0.35;0.20;;;;;;;;;;5016007;28;20050;-77
2023/06/30 05:34:46;;;;;;;0.10;0.10;;;;;;;;;;5023338;28;20112;-77
2023/06/30 05:37:13;;;;;;;0.10;0.10;;;;;;;;;;5020242;28;20108;-77
2023/06/30 05:39:39;;;;;;;0.30;0.30;;;;;;;;;;5018429;28;20593;-78
2023/06/30 05:42:06;;;;;;;0.10;0.10;;;;;;;;;;5035976;28;20136;-78
2023/06/30 05:44:33;;;;;;;0.10;0.10;;;;;;;;;;5022713;28;20109;-77
2023/06/30 05:46:59;;;;;;;0.10;0.10;;;;;;;;;;5014339;28;20066;-78
2023/06/30 05:49:26;;;;;;;0.10;0.10;;;;;;;;;;5009586;28;20505;-78
2023/06/30 05:51:52;;;;;;;0.10;0.10;;;;;;;;;;5021667;28;20078;-78
2023/06/30 05:54:18;;;;;;;0.10;0.10;;;;;;;;;;5021789;28;20137;-78
2023/06/30 05:56:45;;;;;;;0.10;0.10;;;;;;;;;;5021900;28;20097;-78
2023/06/30 05:59:11;;;;;;;0.10;0.10;;;;;;;;;;5020010;28;20081;-78
2023/06/30 06:01:40;;;;;;;0.10;0.10;;;;;;;;;;5018181;28;20629;-78
2023/06/30 06:04:10;;;;;;;0.30;0.30;;;;;;;;;;5022783;28;20616;-77
2023/06/30 06:06:37;;;;;;;0.10;0.10;;;;;;;;;;5015146;28;20050;-78
2023/06/30 06:09:04;;;;;;;0.10;0.10;;;;;;;;;;5005900;28;20058;-77
2023/06/30 06:11:30;;;;;;;0.10;0.10;;;;;;;;;;5012513;28;20046;-78
2023/06/30 06:13:56;;;;;;;0.10;0.10;;;;;;;;;;5018397;28;20800;-77
2023/06/30 06:16:23;;;;;;;0.15;0.15;;;;;;;;;;5024926;28;20054;-78
2023/06/30 06:18:50;;;;;;;0.10;0.10;;;;;;;;;;5023367;28;20049;-78
2023/06/30 06:21:17;;;;;;;0.38;0.28;;;;;;;;;;5022725;28;20065;-78
2023/06/30 06:23:44;;;;;;;0.10;0.10;;;;;;;;;;5019223;28;20164;-78
2023/06/30 06:26:10;;;;;;;0.10;0.10;;;;;;;;;;5012008;28;20519;-78
2023/06/30 06:28:37;;;;;;;0.70;0.15;;;;;;;;;;5005830;28;20055;-77
2023/06/30 06:33:51;;;;;;;0.20;0.20;;;;;;;;;;5018671;23;20797;-95
2023/06/30 06:42:27;;;;;;;0.93;0.38;;;;;;;;;;5029875;23;20053;-78
2023/06/30 06:44:54;;;;;;;0.10;0.10;;;;;;;;;;5034327;28;21003;-78
2023/06/30 06:47:39;;;;;;;0.20;0.20;;;;;;;;;;5029079;28;20050;-77
2023/06/30 06:50:06;;;;;;;0.10;0.10;;;;;;;;;;5031335;28;20057;-78
2023/06/30 06:52:34;;;;;;;0.10;0.10;;;;;;;;;;5029878;28;20061;-77
2023/06/30 06:55:00;;;;;;;0.10;0.10;;;;;;;;;;5026625;28;20069;-77
2023/06/30 06:57:27;;;;;;;0.10;0.10;;;;;;;;;;5038424;28;20053;-78
2023/06/30 06:59:53;;;;;;;0.20;0.20;;;;;;;;;;5033714;28;20054;-79
2023/06/30 07:02:19;;;;;;;0.32;0.32;;;;;;;;;;5027062;28;20049;-77
2023/06/30 07:04:46;;;;;;;0.10;0.10;;;;;;;;;;5039905;28;20057;-76
2023/06/30 07:07:12;;;;;;;0.20;0.20;;;;;;;;;;5033341;28;20054;-77
2023/06/30 07:09:39;;;;;;;0.10;0.10;;;;;;;;;;5036997;28;20061;-77
2023/06/30 07:12:08;;;;;;;0.15;0.15;;;;;;;;;;5037774;28;20076;-77
2023/06/30 07:14:35;;;;;;;1.02;0.95;;;;;;;;;;5035167;28;20060;-77
2023/06/30 07:17:02;;;;;;;0.10;0.10;;;;;;;;;;5041547;28;20056;-77
2023/06/30 07:19:29;;;;;;;0.20;0.20;;;;;;;;;;5043770;28;20140;-77
2023/06/30 07:21:56;;;;;;;0.20;0.20;;;;;;;;;;5031475;28;20057;-78
2023/06/30 07:24:22;;;;;;;0.10;0.10;;;;;;;;;;5037817;28;20107;-77
2023/06/30 07:26:50;;;;;;;0.25;0.25;;;;;;;;;;5044927;28;20173;-77
2023/06/30 07:29:16;;;;;;;0.20;0.20;;;;;;;;;;5046230;28;20057;-77
2023/06/30 07:31:43;;;;;;;0.20;0.20;;;;;;;;;;5039774;28;20116;-78
2023/06/30 07:34:09;;;;;;;0.10;0.10;;;;;;;;;;5040551;28;20045;-78
2023/06/30 07:36:36;;;;;;;0.20;0.20;;;;;;;;;;5028471;28;20053;-77
2023/06/30 07:39:02;;;;;;;0.28;0.22;;;;;;;;;;5028085;28;20061;-78
2023/06/30 07:41:34;;;;;;;0.20;0.20;;;;;;;;;;5031049;28;21130;-77
2023/06/30 07:44:02;;;;;;;0.43;0.30;;;;;;;;;;5042211;28;20062;-78
2023/06/30 07:46:29;;;;;;;0.10;0.10;;;;;;;;;;5032021;28;20112;-77
2023/06/30 07:48:56;;;;;;;0.10;0.10;;;;;;;;;;5040304;28;20099;-78
2023/06/30 07:51:22;;;;;;;0.20;0.20;;;;;;;;;;5038464;28;20149;-76
2023/06/30 07:53:49;;;;;;;0.20;0.20;;;;;;;;;;5035001;28;20103;-77
2023/06/30 07:56:15;;;;;;;0.10;0.10;;;;;;;;;;5038723;28;20403;-77
2023/06/30 07:58:42;;;;;;;0.10;0.10;;;;;;;;;;5039673;28;20537;-78
2023/06/30 08:06:54;;;;;;;0.10;0.10;;;;;;;;;;5760210;23;20054;-75
2023/06/30 08:09:20;;;;;;;0.20;0.20;;;;;;;;;;5026146;28;20085;-79
2023/06/30 08:11:47;;;;;;;0.17;0.17;;;;;;;;;;5036744;28;20513;-79
2023/06/30 08:14:14;;;;;;;0.43;0.30;;;;;;;;;;5046233;28;20054;-78
2023/06/30 08:16:40;;;;;;;0.20;0.20;;;;;;;;;;5046433;28;20061;-79
2023/06/30 08:19:06;;;;;;;0.25;0.25;;;;;;;;;;5041108;28;20054;-79
2023/06/30 08:21:53;;;;;;;0.70;0.30;;;;;;;;;;5033754;28;20077;-78
2023/06/30 08:24:20;;;;;;;0.20;0.20;;;;;;;;;;5026094;28;20060;-77
2023/06/30 08:26:46;;;;;;;0.13;0.13;;;;;;;;;;5034057;28;20056;-78
2023/06/30 08:29:13;;;;;;;0.10;0.10;;;;;;;;;;5046950;28;20136;-78
2023/06/30 08:31:40;;;;;;;0.22;0.20;;;;;;;;;;5029093;28;20149;-78
2023/06/30 08:34:08;;;;;;;0.20;0.20;;;;;;;;;;5038421;28;20101;-78
2023/06/30 08:36:34;;;;;;;0.63;0.35;;;;;;;;;;5033096;28;21032;-78
2023/06/30 08:39:01;;;;;;;0.20;0.20;;;;;;;;;;5018810;28;20057;-78
2023/06/30 08:41:28;;;;;;;0.30;0.30;;;;;;;;;;5032153;28;20049;-78
2023/06/30 08:43:55;;;;;;;0.20;0.20;;;;;;;;;;5045987;28;20137;-78
2023/06/30 08:46:26;;;;;;;0.20;0.20;;;;;;;;;;5029686;28;20053;-78
2023/06/30 08:48:52;;;;;;;0.20;0.20;;;;;;;;;;5038771;28;20538;-78
2023/06/30 08:51:19;;;;;;;0.20;0.20;;;;;;;;;;5020377;28;20050;-78
2023/06/30 08:53:49;;;;;;;0.20;0.20;;;;;;;;;;5030318;28;20113;-77
2023/06/30 08:56:16;;;;;;;;;;;;;;;;;;5030820;28;20161;-78
2023/06/30 08:58:42;;;;;;;0.40;0.40;;;;;;;;;;5038086;28;44659;-78
2023/06/30 09:01:09;;;;;;;0.60;0.47;;;;;;;;;;5011411;28;20053;-78
2023/06/30 09:03:36;;;;;;;0.20;0.20;;;;;;;;;;5027928;28;20064;-78
2023/06/30 09:06:03;;;;;;;0.20;0.20;;;;;;;;;;5029581;28;20061;-78
2023/06/30 09:08:44;;;;;;;0.30;0.30;;;;;;;;;;5035936;28;20882;-78
2023/06/30 09:11:11;;;;;;;0.20;0.20;;;;;;;;;;5040641;28;20105;-79
2023/06/30 09:13:38;;;;;;;0.20;0.20;;;;;;;;;;5011783;28;20085;-78
2023/06/30 09:16:08;;;;;;;0.20;0.20;;;;;;;;;;5016229;28;20057;-80
2023/06/30 09:18:34;;;;;;;;;;;;;;;;;;5013511;28;20057;-81
2023/06/30 09:21:03;;;;;;;0.77;0.57;;;;;;;;;;5026348;28;47770;-78
2023/06/30 09:23:29;;;;;;;0.20;0.20;;;;;;;;;;5030343;28;20089;-78
2023/06/30 09:25:56;;;;;;;0.20;0.20;;;;;;;;;;5036154;28;20062;-78
2023/06/30 09:28:22;;;;;;;0.30;0.30;;;;;;;;;;5027336;28;20576;-78
2023/06/30 09:30:49;;;;;;;0.20;0.20;;;;;;;;;;5034878;28;20113;-78
2023/06/30 09:33:16;;;;;;;0.20;0.20;;;;;;;;;;5026298;28;20050;-78
2023/06/30 09:35:43;;;;;;;0.20;0.20;;;;;;;;;;5024790;28;20122;-78
2023/06/30 09:38:14;;;;;;;0.20;0.20;;;;;;;;;;5031143;28;20064;-78
2023/06/30 09:40:44;;;;;;;0.28;0.28;;;;;;;;;;5044501;28;20501;-79
2023/06/30 09:43:18;;;;;;;0.20;0.20;;;;;;;;;;5033433;28;20041;-79
2023/06/30 09:45:59;;;;;;;0.20;0.20;;;;;;;;;;5017800;28;20054;-77
2023/06/30 09:48:35;;;;;;;1.60;1.50;;;;;;;;;;5017562;28;20045;-76
2023/06/30 09:51:02;;;;;;;0.10;0.10;;;;;;;;;;5030859;28;20054;-76
2023/06/30 09:53:35;;;;;;;1.52;0.32;;;;;;;;;;5024197;28;20045;-76
2023/06/30 09:56:02;;;;;;;0.80;0.35;;;;;;;;;;5032668;28;20532;-76
2023/06/30 09:58:29;;;;;;;0.22;0.22;;;;;;;;;;5010126;28;20524;-76
2023/06/30 10:00:56;;;;;;;0.20;0.20;;;;;;;;;;5037056;28;20136;-77
2023/06/30 10:03:23;;;;;;;0.30;0.30;;;;;;;;;;5014406;28;20141;-77
2023/06/30 10:05:51;;;;;;;0.65;0.65;;;;;;;;;;5042057;28;20099;-77
2023/06/30 10:08:20;;;;;;;0.20;0.20;;;;;;;;;;5025472;28;20054;-76
2023/06/30 10:10:47;;;;;;;0.20;0.20;;;;;;;;;;5029556;28;20049;-76
2023/06/30 10:13:15;;;;;;;0.30;0.20;;;;;;;;;;5024269;28;20253;-77
2023/06/30 10:15:43;;;;;;;0.20;0.20;;;;;;;;;;5030040;28;20057;-76
2023/06/30 10:18:11;;;;;;;0.47;0.47;;;;;;;;;;5030729;28;20054;-77
2023/06/30 10:20:38;;;;;;;0.30;0.30;;;;;;;;;;5023843;28;20054;-76
2023/06/30 10:23:15;;;;;;;0.20;0.20;;;;;;;;;;5027475;28;20057;-76
2023/06/30 10:25:41;;;;;;;0.15;0.15;;;;;;;;;;5038494;28;20425;-76
2023/06/30 10:28:08;;;;;;;0.30;0.30;;;;;;;;;;5027103;28;20058;-76
2023/06/30 10:30:35;;;;;;;0.20;0.20;;;;;;;;;;5035627;28;20053;-77
2023/06/30 10:33:01;;;;;;;0.20;0.20;;;;;;;;;;5014816;28;20065;-76
2023/06/30 10:35:28;;;;;;;0.20;0.20;;;;;;;;;;5043183;28;20049;-76
2023/06/30 10:37:56;;;;;;;0.20;0.20;;;;;;;;;;5033020;28;20096;-77
2023/06/30 10:40:23;;;;;;;0.40;0.30;;;;;;;;;;5025504;28;20148;-77
2023/06/30 10:42:50;;;;;;;0.20;0.20;;;;;;;;;;5043119;28;20054;-75
2023/06/30 10:45:17;;;;;;;0.20;0.20;;;;;;;;;;5036110;28;20054;-76
2023/06/30 10:47:47;;;;;;;0.38;0.35;;;;;;;;;;5023497;28;20448;-76
2023/06/30 10:50:14;;;;;;;0.20;0.20;;;;;;;;;;5024763;28;20058;-75
2023/06/30 10:52:53;;;;;;;0.20;0.20;;;;;;;;;;5034057;28;20302;-75
2023/06/30 10:55:21;;;;;;;0.20;0.20;;;;;;;;;;5027615;28;20096;-76
2023/06/30 10:57:51;;;;;;;0.63;0.30;;;;;;;;;;5028426;28;20081;-76
2023/06/30 11:00:20;;;;;;;0.73;0.30;;;;;;;;;;5029382;28;20053;-76
2023/06/30 11:02:48;;;;;;;0.30;0.28;;;;;;;;;;5043764;28;20056;-76
2023/06/30 11:05:21;;;;;;;0.30;0.30;;;;;;;;;;5030252;28;20085;-76
2023/06/30 11:07:48;;;;;;;0.20;0.20;;;;;;;;;;5016892;28;20057;-76
2023/06/30 11:10:34;;;;;;;0.20;0.20;;;;;;;;;;5029539;28;20058;-76
2023/06/30 11:13:11;;;;;;;0.20;0.20;;;;;;;;;;5030150;28;20184;-76
2023/06/30 11:15:38;;;;;;;0.20;0.20;;;;;;;;;;5018618;28;20053;-76
2023/06/30 11:18:10;;;;;;;0.55;0.32;;;;;;;;;;5027102;28;20065;-76
2023/06/30 11:20:37;;;;;;;0.30;0.30;;;;;;;;;;5027864;28;20539;-74
2023/06/30 11:23:16;;;;;;;0.43;0.32;;;;;;;;;;5037924;28;20065;-75
2023/06/30 11:25:43;;;;;;;0.25;0.20;;;;;;;;;;5031011;28;20145;-75
2023/06/30 11:28:11;;;;;;;0.20;0.20;;;;;;;;;;5026419;28;20135;-75
2023/06/30 11:30:38;;;;;;;0.20;0.20;;;;;;;;;;5038615;28;20109;-76
2023/06/30 11:33:06;;;;;;;0.63;0.20;;;;;;;;;;5043479;28;20077;-75
2023/06/30 11:35:36;;;;;;;0.40;0.40;;;;;;;;;;5047086;28;20060;-77
2023/06/30 11:38:02;;;;;;;;;;;;;;;;;;5029996;28;20498;-77
2023/06/30 11:40:29;;;;;;;0.20;0.20;;;;;;;;;;5028585;28;47706;-77
2023/06/30 11:42:55;;;;;;;0.20;0.20;;;;;;;;;;5035507;28;20073;-77
2023/06/30 11:45:27;;;;;;;0.20;0.20;;;;;;;;;;5036089;28;20149;-77
2023/06/30 11:47:54;;;;;;;0.20;0.20;;;;;;;;;;5028150;28;20916;-77
2023/06/30 11:50:21;;;;;;;0.20;0.20;;;;;;;;;;5034398;28;20157;-76
2023/06/30 11:55:29;;;;;;;0.25;0.22;;;;;;;;;;5043025;22;20066;-75
2023/06/30 12:00:30;;;;;;;0.20;0.20;;;;;;;;;;5665649;23;21931;-76
2023/06/30 12:02:57;;;;;;;0.30;0.30;;;;;;;;;;5037082;28;20103;-77
2023/06/30 12:05:25;;;;;;;0.82;0.57;;;;;;;;;;5035505;28;20947;-77
2023/06/30 12:07:56;;;;;;;0.30;0.30;;;;;;;;;;5029360;28;20054;-77
2023/06/30 12:10:38;;;;;;;0.75;0.75;;;;;;;;;;5043819;28;20522;-77
2023/06/30 12:13:06;;;;;;;0.30;0.30;;;;;;;;;;5047454;28;20875;-76
2023/06/30 12:15:33;;;;;;;0.30;0.30;;;;;;;;;;5037340;28;20053;-76
2023/06/30 12:18:01;;;;;;;0.35;0.30;;;;;;;;;;5033483;28;20482;-76
2023/06/30 12:20:31;;;;;;;0.30;0.30;;;;;;;;;;5031691;28;20054;-76
2023/06/30 12:22:59;;;;;;;0.85;0.85;;;;;;;;;;5045899;28;20128;-76
2023/06/30 12:25:27;;;;;;;0.32;0.30;;;;;;;;;;5030002;28;20061;-76
2023/06/30 12:27:54;;;;;;;0.20;0.20;;;;;;;;;;5039166;28;20603;-76
2023/06/30 12:30:24;;;;;;;0.32;0.32;;;;;;;;;;5042973;28;20064;-76
2023/06/30 12:32:55;;;;;;;0.20;0.20;;;;;;;;;;5042805;28;20075;-76
2023/06/30 12:35:21;;;;;;;;;;;;;;;;;;5038490;28;20745;-76
2023/06/30 12:37:48;;;;;;;0.22;0.22;;;;;;;;;;5037400;28;44826;-76
2023/06/30 12:40:15;;;;;;;0.77;0.40;;;;;;;;;;5030105;28;20054;-76
2023/06/30 12:42:44;;;;;;;0.52;0.40;;;;;;;;;;5045930;28;20132;-76
2023/06/30 12:45:11;;;;;;;0.75;0.60;;;;;;;;;;5041106;28;20583;-76
2023/06/30 12:47:37;;;;;;;0.20;0.20;;;;;;;;;;5038071;28;20073;-76
2023/06/30 12:50:04;;;;;;;0.55;0.55;;;;;;;;;;5045945;28;20057;-76
2023/06/30 12:52:30;;;;;;;0.52;0.47;;;;;;;;;;5039446;28;20170;-76
2023/06/30 12:54:57;;;;;;;0.20;0.20;;;;;;;;;;5038802;28;20093;-76
2023/06/30 12:57:23;;;;;;;0.20;0.20;;;;;;;;;;5042606;28;20057;-76
2023/06/30 12:59:50;;;;;;;0.32;0.30;;;;;;;;;;5044800;28;20092;-76
2023/06/30 13:02:16;;;;;;;1.13;0.30;;;;;;;;;;5042374;28;20058;-76
2023/06/30 13:04:42;;;;;;;0.40;0.40;;;;;;;;;;5042550;28;20057;-76
2023/06/30 13:07:09;;;;;;;0.20;0.20;;;;;;;;;;5042995;28;20061;-75
2023/06/30 13:09:36;;;;;;;0.22;0.22;;;;;;;;;;5035040;28;20064;-76
2023/06/30 13:12:02;;;;;;;0.20;0.20;;;;;;;;;;5033308;28;20119;-76
2023/06/30 13:14:29;;;;;;;0.20;0.20;;;;;;;;;;5028717;28;20109;-76
2023/06/30 13:16:56;;;;;;;0.77;0.38;;;;;;;;;;5039247;28;20054;-76
2023/06/30 13:19:24;;;;;;;0.30;0.30;;;;;;;;;;5036874;28;20135;-76
2023/06/30 13:21:51;;;;;;;0.22;0.22;;;;;;;;;;5029087;28;20065;-75
2023/06/30 13:24:17;;;;;;;0.32;0.32;;;;;;;;;;5041508;28;20057;-76
2023/06/30 13:26:45;;;;;;;0.20;0.20;;;;;;;;;;5033262;28;20054;-75
2023/06/30 13:29:12;;;;;;;0.20;0.20;;;;;;;;;;5036200;28;20057;-76
2023/06/30 13:31:38;;;;;;;0.57;0.40;;;;;;;;;;5037941;28;20449;-76
2023/06/30 13:34:05;;;;;;;0.20;0.20;;;;;;;;;;5043475;28;20522;-76
2023/06/30 13:36:31;;;;;;;0.30;0.30;;;;;;;;;;5032690;28;20054;-76
2023/06/30 13:38:58;;;;;;;0.30;0.30;;;;;;;;;;5040822;28;20128;-76
2023/06/30 13:41:26;;;;;;;0.30;0.30;;;;;;;;;;5029892;28;20076;-76
2023/06/30 13:43:52;;;;;;;0.50;0.40;;;;;;;;;;5031873;28;20057;-76
2023/06/30 13:46:19;;;;;;;0.20;0.20;;;;;;;;;;5026289;28;20104;-75
2023/06/30 13:48:45;;;;;;;0.30;0.30;;;;;;;;;;5024304;28;20054;-75
2023/06/30 13:51:12;;;;;;;0.20;0.20;;;;;;;;;;5031434;28;20103;-77
2023/06/30 13:53:39;;;;;;;6.28;1.95;;;;;;;;;;5036688;28;20057;-76
2023/06/30 13:56:06;;;;;;;0.30;0.30;;;;;;;;;;5028685;28;20065;-76
2023/06/30 13:58:32;;;;;;;0.65;0.55;;;;;;;;;;5025389;28;20060;-78
2023/06/30 14:00:59;;;;;;;0.30;0.30;;;;;;;;;;5024736;28;20057;-76
2023/06/30 14:03:25;;;;;;;0.38;0.35;;;;;;;;;;5030816;28;20084;-75
2023/06/30 14:08:33;;;;;;;0.95;0.70;;;;;;;;;;5777041;23;20057;-77
2023/06/30 14:11:00;;;;;;;0.38;0.35;;;;;;;;;;5011237;28;20053;-77
2023/06/30 14:13:27;;;;;;;0.98;0.57;;;;;;;;;;5033549;28;20054;-77
2023/06/30 14:15:54;;;;;;;1.08;0.57;;;;;;;;;;5044234;28;20421;-77
2023/06/30 14:18:20;;;;;;;0.68;0.30;;;;;;;;;;5040006;28;20062;-77
2023/06/30 14:20:47;;;;;;;0.20;0.20;;;;;;;;;;5036039;28;21054;-77
2023/06/30 14:23:13;;;;;;;0.75;0.40;;;;;;;;;;5024449;28;20745;-76
2023/06/30 14:25:40;;;;;;;2.30;0.57;;;;;;;;;;5036022;28;20140;-77
2023/06/30 14:28:07;;;;;;;1.15;1.05;;;;;;;;;;5032968;28;20427;-76
2023/06/30 14:30:34;;;;;;;0.85;0.65;;;;;;;;;;5024506;28;20081;-77
2023/06/30 14:33:01;;;;;;;0.30;0.30;;;;;;;;;;5022959;28;20147;-77
2023/06/30 14:35:28;;;;;;;0.22;0.22;;;;;;;;;;5035069;28;20513;-76
2023/06/30 14:37:55;;;;;;;0.63;0.57;;;;;;;;;;5022215;28;20153;-77
2023/06/30 14:40:24;;;;;;;0.55;0.40;;;;;;;;;;5023105;28;20050;-77
2023/06/30 14:42:51;;;;;;;0.30;0.30;;;;;;;;;;5024591;28;20505;-77
2023/06/30 14:45:18;;;;;;;0.65;0.45;;;;;;;;;;5025322;28;20058;-77
2023/06/30 14:47:44;;;;;;;1.10;0.82;;;;;;;;;;5023378;28;20053;-77
2023/06/30 14:50:11;;;;;;;0.82;0.55;;;;;;;;;;5021483;28;20053;-77
2023/06/30 14:52:37;;;;;;;0.20;0.20;;;;;;;;;;5032137;28;20054;-77
2023/06/30 14:55:04;;;;;;;0.75;0.50;;;;;;;;;;5040500;28;20053;-77
2023/06/30 14:57:30;;;;;;;0.35;0.35;;;;;;;;;;5034606;28;20054;-77
2023/06/30 14:59:57;;;;;;;0.40;0.40;;;;;;;;;;5035269;28;20054;-77
2023/06/30 15:02:23;;;;;;;0.30;0.30;;;;;;;;;;5030723;28;20088;-77
2023/06/30 15:04:50;;;;;;;0.30;0.30;;;;;;;;;;5034412;28;20575;-77
2023/06/30 15:07:16;;;;;;;0.35;0.30;;;;;;;;;;5008262;28;20861;-77
2023/06/30 15:09:43;;;;;;;0.30;0.30;;;;;;;;;;5034694;28;20054;-78
2023/06/30 15:12:09;;;;;;;0.22;0.22;;;;;;;;;;5032853;28;20064;-76
2023/06/30 15:14:36;;;;;;;0.32;0.30;;;;;;;;;;5040621;28;20537;-76
2023/06/30 15:17:02;;;;;;;0.30;0.30;;;;;;;;;;5040996;28;20575;-78
2023/06/30 15:19:29;;;;;;;0.43;0.43;;;;;;;;;;5030465;28;20061;-77
2023/06/30 15:21:55;;;;;;;0.52;0.52;;;;;;;;;;5029498;28;20104;-77
2023/06/30 15:24:22;;;;;;;0.30;0.30;;;;;;;;;;5017334;28;20045;-78
2023/06/30 15:26:48;;;;;;;0.20;0.20;;;;;;;;;;5025503;28;20084;-81
2023/06/30 15:29:15;;;;;;;0.57;0.40;;;;;;;;;;5034195;28;20054;-78
2023/06/30 15:31:42;;;;;;;0.35;0.35;;;;;;;;;;5030758;28;20136;-76
2023/06/30 15:34:09;;;;;;;1.00;0.43;;;;;;;;;;5028481;28;20065;-78
2023/06/30 15:36:35;;;;;;;0.20;0.20;;;;;;;;;;5030723;28;20061;-77
2023/06/30 15:39:03;;;;;;;0.40;0.30;;;;;;;;;;5010517;28;20173;-78
2023/06/30 15:41:29;;;;;;;0.52;0.25;;;;;;;;;;5037680;28;20050;-78
2023/06/30 15:43:56;;;;;;;0.22;0.22;;;;;;;;;;5031082;28;20084;-78
2023/06/30 15:46:22;;;;;;;0.32;0.30;;;;;;;;;;5028649;28;20062;-78